Huvudsida
METAR-TAF:

METAR-TAF

Flygplatser :

Dimapur Airport

Dimapur, Indien

latitud: 25-53-02N, longitud: 093-46-16E, höjd: 148 m

Aktuellt väderrapport

Denna rapport gjordes för 11 timmar och 51 minuter sedan, klockan 08:30 UTC
Vind 6 kt från nord/nordost
Temperatur 38°C
Fuktighet 48%
Tryck 997 hPa
Sikt: 5000 m
Få moln på en höjd av 2000 ft
Spridda moln på en höjd av 10000 ft
torrdis,

METAR: VEMR 250830Z 02006KT 5000 HZ FEW020 SCT100 38/25 Q0997 NOSIG

Tid: 01:51 (20:21 UTC)

Väderprognos

Denna rapport gjordes för 3 timmar och 21 minuter sedan, klockan 17:00 UTC
Prognos gäller från 25 kl. 18 UTC till 26 kl. 03 UTC
Vind kt från nord
Sikt: 2000 m
Få moln på en höjd av 2000 ft
Spridda moln på en höjd av 10000 ft
fuktdis,

TAF: VEMR 251700Z 2518/2603 00000KT 2000 BR FEW020 SCT100

Aktuella väderrapporter och prognoser från 4000 flygplatser (METAR- och TAF-rapporter).

De tillgängliga stationerna syns som gula och röda prickar på kartan.

För musen över prickarna för att se namnen på stationerna.

Klicka sedan för att få väderrapporter och prognoser.

För att ändra kartan: Klicka på de gröna knapparna med ett svart kors på för att zooma in; den gröna knappen med ett streck på för att zooma ut; eller på de gröna pilarna för angränsande kartor.


METAR-TAF: